Stockbridge, United Kingdom
Current Conditions -  °F | °C
As of 12:50 AM on Monday 24 Nov 2014 (Local Time) from EGVP Reporting Station
Clear Clear  
Wind Chill: 32°   Ceiling: Unl
Heat Index: 36°   Visibility: 6mi
Dew Point: 36°   Wind: 5mph
Humidity: 100%   Direction: 320°NW
Pressure: 30.21"   Gusts: NA
Location:  51.15°N, 1.44°W
Report Text: EGVP 240050Z AUTO 32004KT 9999 // NCD 02/02 Q1023
Loading
Personal Weather Stations






























Interactive Weather Map New forecast layout! Learn more

10-Day Weather Forecast

Advertisements
Track Severe Weather on mobile